• Join FlightAware (Why Join?)
  • Login
  • US Flag 
11:17PM EDT


 

Airport Tracker/Info


-or-


 

Live Flight TrackerFlight Track Log ✈ N744WD ✈ 09-May-2012 ✈ KHOU - KEKM

Flight Track Log - Related Links

Times and Time Zones

All times are in EDT time to prevent confusion due to time zone crossing. See the N744WD flight status page for this flight to view local times or setup timezone preferences in your user account.

Time Position Orientation Groundspeed Altitude Reporting Facility
EDT Latitude Longitude Course Direction KTS MPH feet Rate Location/Type
07:51AM 29.6592 -95.2897 358° North 146 168 600  Level Houston Center
07:52AM 29.6903 -95.2908 North 147 169 1,700 1,620 Climbing Houston Center
07:53AM 29.7364 -95.2900 North 171 197 3,500 1,800 Climbing Houston Center
07:54AM 29.7844 -95.2844 North 170 196 5,400 1,740 Climbing Houston Center
07:55AM 29.8325 -95.2814 North 181 208 7,100 1,740 Climbing Houston Center
07:56AM 29.8806 -95.2781 10° North 176 203 9,000 1,680 Climbing Houston Center
07:58AM 29.9583 -95.2617 27° Northeast 189 217 11,600 1,380 Climbing Houston Center
07:59AM 30.0092 -95.2322 29° Northeast 189 217 12,700 1,260 Climbing Houston Center
08:00AM 30.0664 -95.1958 26° Northeast 202 232 14,200 1,500 Climbing Houston Center
08:01AM 30.1217 -95.1642 29° Northeast 214 246 15,800 1,320 Climbing Houston Center
08:02AM 30.1789 -95.1278 28° Northeast 219 252 16,900 1,080 Climbing Houston Center
08:03AM 30.2383 -95.0914 31° Northeast 225 259 18,000 1,080 Climbing Houston Center
08:04AM 30.2978 -95.0500 25° Northeast 231 266 19,100 1,020 Climbing Houston Center
08:05AM 30.3611 -95.0161 31° Northeast 237 273 20,100 900 Climbing Houston Center
08:06AM 30.4206 -94.9747 29° Northeast 248 285 21,000 780 Climbing Houston Center
08:07AM 30.4928 -94.9289 30° Northeast 253 291 21,700 720 Climbing Houston Center
08:08AM 30.6008 -94.8578 34° Northeast 278 320 23,100 720 Climbing Fort Worth Center
08:09AM 30.6667 -94.8053 34° Northeast 278 320 23,800 600 Climbing Fort Worth Center
08:10AM 30.7303 -94.7553 33° Northeast 278 320 24,400 600 Climbing Fort Worth Center
08:11AM 30.7981 -94.7050 33° Northeast 278 320 25,000 600 Climbing Fort Worth Center
08:12AM 30.8719 -94.6497 29° Northeast 278 320 25,700 540 Climbing Fort Worth Center
08:13AM 30.9400 -94.6064 31° Northeast 278 320 26,100 420 Climbing Fort Worth Center
08:14AM 31.0078 -94.5583 30° Northeast 278 320 26,600 360 Climbing Fort Worth Center
08:15AM 31.0756 -94.5128 28° Northeast 278 320 26,900 180 Climbing Fort Worth Center
08:16AM 31.1375 -94.4744 32° Northeast 278 320 27,000  Climbing Fort Worth Center
08:17AM 31.2072 -94.4236 30° Northeast 278 320 27,000  Level Fort Worth Center
08:18AM 31.2894 -94.3675 31° Northeast 301 346 27,000  Level Fort Worth Center
08:19AM 31.3611 -94.3164 29° Northeast 301 346 27,000  Level Fort Worth Center
08:20AM 31.4331 -94.2703 31° Northeast 301 346 27,000  Level Fort Worth Center
08:21AM 31.5069 -94.2189 31° Northeast 301 346 27,000  Level Fort Worth Center
08:22AM 31.5808 -94.1678 31° Northeast 301 346 27,100  Climbing Fort Worth Center
08:23AM 31.6525 -94.1164 29° Northeast 301 346 27,100  Level Fort Worth Center
08:24AM 31.7244 -94.0697 30° Northeast 301 346 27,100 -60 Level Fort Worth Center
08:25AM 31.7961 -94.0208 30° Northeast 301 346 27,000  Descending Fort Worth Center
08:26AM 31.8678 -93.9717 33° Northeast 301 346 27,100  Climbing Fort Worth Center
08:27AM 31.9394 -93.9175 28° Northeast 301 346 27,000 -60 Descending Fort Worth Center
08:28AM 32.0133 -93.8706 32° Northeast 301 346 27,000  Level Fort Worth Center
08:29AM 32.0828 -93.8189 32° Northeast 296 341 27,000  Level Fort Worth Center
08:30AM 32.1544 -93.7669 34° Northeast 296 341 27,000  Level Fort Worth Center
08:31AM 32.2258 -93.7103 29° Northeast 296 341 27,000  Level Fort Worth Center
08:32AM 32.2953 -93.6656 30° Northeast 291 335 27,000  Level Fort Worth Center
08:33AM 32.3692 -93.6158 32° Northeast 291 335 27,000  Level Fort Worth Center
08:34AM 32.4406 -93.5636 31° Northeast 291 335 27,000  Level Fort Worth Center
08:35AM 32.5264 -93.5033 31° Northeast 291 335 27,000  Level Fort Worth Center
08:36AM 32.5958 -93.4533 31° Northeast 291 335 27,000  Level Fort Worth Center
08:37AM 32.6692 -93.4008 30° Northeast 291 335 27,100  Climbing Fort Worth Center
08:38AM 32.7428 -93.3506 31° Northeast 296 341 27,100 -60 Level Fort Worth Center
08:39AM 32.8161 -93.2978 31° Northeast 296 341 27,000 -60 Descending Fort Worth Center
08:40AM 32.8875 -93.2475 30° Northeast 296 341 27,000  Level Fort Worth Center
08:41AM 32.9569 -93.1997 33° Northeast 291 335 27,000  Level Fort Worth Center
08:42AM 33.0242 -93.1469 29° Northeast 286 329 27,000  Level Fort Worth Center
08:43AM 33.0956 -93.0992 33° Northeast 286 329 27,000  Level Fort Worth Center
08:44AM 33.1647 -93.0461 30° Northeast 286 329 27,000  Level Fort Worth Center
08:45AM 33.2381 -92.9953 32° Northeast 286 329 27,000  Level Fort Worth Center
08:46AM 33.3092 -92.9419 30° Northeast 286 329 27,000  Level Fort Worth Center
08:48AM 33.4342 -92.8539 30° Northeast 293 337 27,000  Level Memphis Center
08:49AM 33.5061 -92.8036 31° Northeast 293 337 27,000  Level Memphis Center
08:50AM 33.5781 -92.7508 32° Northeast 299 344 27,000  Level Memphis Center
08:51AM 33.6500 -92.6978 31° Northeast 299 344 27,000  Level Memphis Center
08:52AM 33.7239 -92.6450 31° Northeast 299 344 27,000  Level Memphis Center
08:53AM 33.7958 -92.5919 31° Northeast 299 344 27,000  Level Memphis Center
08:54AM 33.8719 -92.5364 33° Northeast 299 344 27,000  Level Memphis Center
08:55AM 33.9419 -92.4806 27° Northeast 299 344 27,000  Level Memphis Center
08:56AM 34.0178 -92.4347 35° Northeast 299 344 27,000  Level Memphis Center
08:57AM 34.0875 -92.3761 31° Northeast 299 344 27,000  Level Memphis Center
08:58AM 34.1614 -92.3225 32° Northeast 299 344 27,000  Level Memphis Center
08:59AM 34.2375 -92.2642 29° Northeast 304 350 27,000  Level Memphis Center
09:00AM 34.3092 -92.2153 32° Northeast 304 350 27,000  Level Memphis Center
09:01AM 34.3831 -92.1592 32° Northeast 304 350 27,000  Level Memphis Center
09:02AM 34.4569 -92.1028 32° Northeast 304 350 27,000  Level Memphis Center
09:03AM 34.5308 -92.0464 30° Northeast 304 350 27,000  Level Memphis Center
09:04AM 34.6044 -91.9947 33° Northeast 299 344 27,000  Level Memphis Center
09:05AM 34.6783 -91.9356 30° Northeast 299 344 27,000  Level Memphis Center
09:06AM 34.7539 -91.8814 32° Northeast 304 350 27,000  Level Memphis Center
09:07AM 34.8297 -91.8244 33° Northeast 304 350 27,000  Level Memphis Center
09:08AM 34.9036 -91.7650 32° Northeast 304 350 27,000  Level Memphis Center
09:09AM 34.9792 -91.7078 31° Northeast 304 350 27,000  Level Memphis Center
09:10AM 35.0508 -91.6558 32° Northeast 304 350 27,000  Level Memphis Center
09:11AM 35.1264 -91.5986 33° Northeast 304 350 27,000  Level Memphis Center
09:12AM 35.2000 -91.5411 32° Northeast 304 350 27,000  Level Memphis Center
09:13AM 35.2736 -91.4839 30° Northeast 304 350 27,000  Level Memphis Center
09:14AM 35.3511 -91.4289 33° Northeast 304 350 27,000  Level Memphis Center
09:15AM 35.4267 -91.3686 31° Northeast 309 356 27,000  Level Memphis Center
09:16AM 35.5064 -91.3108 33° Northeast 319 367 27,000  Level Memphis Center
09:17AM 35.5714 -91.2581 31° Northeast 319 367 27,000  Level Memphis Center
09:18AM 35.6492 -91.2000 34° Northeast 319 367 27,000  Level Memphis Center
09:19AM 35.7289 -91.1344 31° Northeast 319 367 27,000  Level Memphis Center
09:20AM 35.8064 -91.0764 33° Northeast 319 367 27,000  Level Memphis Center
09:21AM 35.8836 -91.0156 32° Northeast 324 373 27,000  Level Memphis Center
09:22AM 35.9592 -90.9572 33° Northeast 324 373 27,000  Level Memphis Center
09:23AM 36.0367 -90.8961 32° Northeast 324 373 27,000  Level Memphis Center
09:24AM 36.1161 -90.8347 33° Northeast 330 380 27,000  Level Memphis Center
09:25AM 36.1933 -90.7736 32° Northeast 325 374 27,000  Level Memphis Center
09:26AM 36.2728 -90.7122 33° Northeast 325 374 27,000  Level Memphis Center
09:27AM 36.3522 -90.6481 31° Northeast 325 374 27,000  Level Memphis Center
09:28AM 36.4336 -90.5864 33° Northeast 331 381 27,000  Level Memphis Center
09:29AM 36.5025 -90.5300 31° Northeast 331 381 27,000  Level Memphis Center
09:30AM 36.5839 -90.4681 34° Northeast 331 381 27,000  Level Memphis Center
09:31AM 36.6653 -90.4008 31° Northeast 336 387 27,000  Level Memphis Center
09:32AM 36.7444 -90.3414 34° Northeast 336 387 27,000  Level Memphis Center
09:33AM 36.8256 -90.2739 32° Northeast 342 394 27,000  Level Memphis Center
09:35AM 36.9661 -90.1622 34° Northeast 356 410 27,000  Level Kansas City Center
09:36AM 37.0492 -90.0925 32° Northeast 356 410 27,000  Level Kansas City Center
09:37AM 37.1281 -90.0306 32° Northeast 351 404 27,000  Level Kansas City Center
09:38AM 37.2011 -89.9742 35° Northeast 346 398 27,000  Level Kansas City Center
09:39AM 37.2819 -89.9039 31° Northeast 346 398 27,000  Level Kansas City Center
09:40AM 37.3628 -89.8417 34° Northeast 346 398 27,000  Level Kansas City Center
09:41AM 37.4397 -89.7767 31° Northeast 340 391 27,000  Level Kansas City Center
09:42AM 37.5228 -89.7139 35° Northeast 340 391 27,000  Level Kansas City Center
09:43AM 37.6033 -89.6433 32° Northeast 340 391 27,000  Level Kansas City Center
09:44AM 37.6842 -89.5803 33° Northeast 335 386 27,000  Level Kansas City Center
09:45AM 37.7647 -89.5144 36° Northeast 335 386 27,000  Level Kansas City Center
09:46AM 37.8511 -89.4350 33° Northeast 340 391 27,000  Level Kansas City Center
09:47AM 37.9236 -89.3750 32° Northeast 339 390 27,000  Level Kansas City Center
09:48AM 38.0144 -89.3028 33° Northeast 339 390 27,000  Level Kansas City Center
09:49AM 38.0869 -89.2422 34° Northeast 339 390 27,000  Level Kansas City Center
09:50AM 38.1733 -89.1675 33° Northeast 344 396 27,000  Level Kansas City Center
09:51AM 38.2456 -89.1067 34° Northeast 338 389 27,000  Level Kansas City Center
09:52AM 38.3339 -89.0314 33° Northeast 343 395 27,000  Level Kansas City Center
09:53AM 38.4061 -88.9706 33° Northeast 343 395 27,000  Level Kansas City Center
09:54AM 38.4925 -88.8978 34° Northeast 343 395 27,000  Level Kansas City Center
09:55AM 38.5625 -88.8367 32° Northeast 338 389 27,000  Level Kansas City Center
09:56AM 38.6550 -88.7628 35° Northeast 338 389 27,000  Level Kansas City Center
09:57AM 38.7231 -88.7017 33° Northeast 338 389 27,000  Level Kansas City Center
09:58AM 38.8031 -88.6342 34° Northeast 338 389 27,000  Level Kansas City Center
09:59AM 38.8811 -88.5664 34° Northeast 338 389 27,000  Level Kansas City Center
10:01AM 39.0675 -88.4036 33° Northeast 356 410 27,000  Level Indianapolis Center
10:02AM 39.1472 -88.3369 34° Northeast 349 402 27,000  Level Indianapolis Center
10:03AM 39.2253 -88.2697 34° Northeast 343 395 27,000  Level Indianapolis Center
10:04AM 39.3050 -88.1997 38° Northeast 338 389 27,000  Level Indianapolis Center
10:05AM 39.3658 -88.1392 32° Northeast 331 381 27,000  Level Indianapolis Center
10:06AM 39.4478 -88.0719 34° Northeast 326 375 27,000  Level Indianapolis Center
10:07AM 39.5211 -88.0067 35° Northeast 326 375 27,000  Level Indianapolis Center
10:08AM 39.6008 -87.9336 33° Northeast 321 369 27,000  Level Indianapolis Center
10:10AM 39.7283 -87.8278 35° Northeast 326 375 27,000  Level Chicago Center
10:11AM 39.8025 -87.7611 33° Northeast 321 369 27,000  Level Chicago Center
10:12AM 39.8744 -87.7000 35° Northeast 321 369 27,000  Level Chicago Center
10:13AM 39.9486 -87.6331 32° Northeast 322 371 27,000  Level Chicago Center
10:14AM 40.0228 -87.5717 36° Northeast 322 371 27,000  Level Chicago Center
10:15AM 40.0906 -87.5072 33° Northeast 314 361 27,000  Level Chicago Center
10:16AM 40.1664 -87.4428 37° Northeast 319 367 27,000 -420 Level Chicago Center
10:17AM 40.2322 -87.3783 32° Northeast 319 367 26,200 -1,080 Descending Chicago Center
10:18AM 40.3081 -87.3161 35° Northeast 328 377 24,900 -1,200 Descending Chicago Center
10:19AM 40.3800 -87.2511 35° Northeast 310 357 23,900 -1,200 Descending Chicago Center
10:20AM 40.4497 -87.1864 36° Northeast 298 343 22,600 -1,380 Descending Chicago Center
10:21AM 40.5192 -87.1211 28° Northeast 298 343 21,200 -1,500 Descending Chicago Center
10:22AM 40.5892 -87.0722 16° North 291 335 19,700 -1,500 Descending Chicago Center
10:23AM 40.6739 -87.0394 21° North 285 328 18,200 -1,320 Descending Chicago Center
10:24AM 40.7483 -87.0011 20° North 291 335 17,100 -1,200 Descending Chicago Center
10:25AM 40.8225 -86.9656 17° North 291 335 15,900 -1,200 Descending Chicago Center
10:26AM 40.8992 -86.9353 28° Northeast 291 335 14,800 -1,140 Descending Chicago Center
10:27AM 40.9689 -86.8858 42° Northeast 280 322 13,700 -1,080 Descending Chicago Center
10:28AM 41.0297 -86.8119 40° Northeast 281 323 12,700 -840 Descending Chicago Center
10:29AM 41.0889 -86.7464 43° Northeast 281 323 12,100 -660 Descending Chicago Center
10:30AM 41.1456 -86.6753 37° Northeast 281 323 11,400 -780 Descending Chicago Center
10:31AM 41.2086 -86.6119 44° Northeast 281 323 10,600 -960 Descending Chicago Center
10:32AM 41.2633 -86.5406 38° Northeast 281 323 9,500 -1,500 Descending Chicago Center
10:33AM 41.3222 -86.4800 43° Northeast 276 318 7,600 -1,200 Descending Chicago Center
10:34AM 41.3667 -86.4253 41° Northeast 249 287 7,100 -300 Descending Chicago Center
10:35AM 41.4172 -86.3675 48° Northeast 238 274 7,100 -240 Level Chicago Center
10:36AM 41.4694 -86.2906 65° Northeast 248 285 6,700 -840 Descending Chicago Center
10:37AM 41.5006 -86.2031 35° Northeast 248 285 5,500 -1,200 Descending Chicago Center
10:44AM 41.7167 -86.0000 319° Northwest  Level FlightAware Approximate
10:45AM 41.7788 -86.0732 139° Southeast  Level Estimated
10:46AM 41.7167 -86.0000 319° Northwest  Level FlightAware Approximate
10:47AM 41.7788 -86.0732 139° Southeast  Level Estimated
10:48AM 41.7167 -86.0000 319° Northwest  Level FlightAware Approximate
10:49AM 41.7788 -86.0732 319° Northwest  Level Estimated